Terminal Aerodrome Forecast
Issued by NWS

Home | Current Version | Previous Version | Text Only | Print | Product List | Glossary On
Versions: 1 2 3 4 5 6 7 8 9 10 11 12 13
720
FTUS46 KSEW 061724
TAFBFI
TAF
KBFI 061724Z 0618/0718 VRB04KT P6SM SKC
     FM061900 33010G18KT P6SM SKC
     FM070500 00000KT P6SM SKC=

USA.gov is the U.S. government's official web portal to all federal, state and local government web resources and services.